sensor_id;sensor_type;location;lat;lon;timestamp;temperature;humidity
36548;DHT22;22551;52.206;4.856;2024-03-25T00:43:40;4.40;99.90
36548;DHT22;22551;52.206;4.856;2024-03-25T00:48:44;4.30;99.90
36548;DHT22;22551;52.206;4.856;2024-03-25T00:53:46;4.20;99.90
36548;DHT22;22551;52.206;4.856;2024-03-25T00:58:49;4.10;99.90
36548;DHT22;22551;52.206;4.856;2024-03-25T01:03:51;4.00;99.90
36548;DHT22;22551;52.206;4.856;2024-03-25T01:08:53;3.90;99.90
36548;DHT22;22551;52.206;4.856;2024-03-25T01:13:57;3.80;99.90
36548;DHT22;22551;52.206;4.856;2024-03-25T01:18:59;3.80;99.90
36548;DHT22;22551;52.206;4.856;2024-03-25T01:24:01;3.70;99.90
36548;DHT22;22551;52.206;4.856;2024-03-25T01:29:05;3.70;99.90
36548;DHT22;22551;52.206;4.856;2024-03-25T01:34:08;3.70;99.90
36548;DHT22;22551;52.206;4.856;2024-03-25T01:39:10;3.70;99.90
36548;DHT22;22551;52.206;4.856;2024-03-25T01:44:13;3.80;99.90
36548;DHT22;22551;52.206;4.856;2024-03-25T01:49:16;3.80;99.90
36548;DHT22;22551;52.206;4.856;2024-03-25T03:03:25;3.70;99.90
36548;DHT22;22551;52.206;4.856;2024-03-25T03:08:27;3.70;99.90
36548;DHT22;22551;52.206;4.856;2024-03-25T03:13:30;3.60;99.90
36548;DHT22;22551;52.206;4.856;2024-03-25T03:18:33;3.60;99.90
36548;DHT22;22551;52.206;4.856;2024-03-25T03:23:36;3.50;99.90
36548;DHT22;22551;52.206;4.856;2024-03-25T03:28:38;3.50;99.90
36548;DHT22;22551;52.206;4.856;2024-03-25T03:33:42;3.40;99.90
36548;DHT22;22551;52.206;4.856;2024-03-25T03:38:44;3.40;99.90
36548;DHT22;22551;52.206;4.856;2024-03-25T03:43:46;3.30;99.90
36548;DHT22;22551;52.206;4.856;2024-03-25T03:48:49;3.20;99.90
36548;DHT22;22551;52.206;4.856;2024-03-25T03:53:52;3.20;99.90
36548;DHT22;22551;52.206;4.856;2024-03-25T03:58:54;3.20;99.90
36548;DHT22;22551;52.206;4.856;2024-03-25T04:03:57;3.20;99.90
36548;DHT22;22551;52.206;4.856;2024-03-25T04:08:59;3.20;99.90
36548;DHT22;22551;52.206;4.856;2024-03-25T04:14:01;3.20;99.90
36548;DHT22;22551;52.206;4.856;2024-03-25T04:19:05;3.20;99.90
36548;DHT22;22551;52.206;4.856;2024-03-25T04:24:07;3.20;99.90
36548;DHT22;22551;52.206;4.856;2024-03-25T04:29:10;3.20;99.90
36548;DHT22;22551;52.206;4.856;2024-03-25T04:34:13;3.10;99.90
36548;DHT22;22551;52.206;4.856;2024-03-25T04:39:16;3.00;99.90
36548;DHT22;22551;52.206;4.856;2024-03-25T04:44:18;2.90;99.90
36548;DHT22;22551;52.206;4.856;2024-03-25T04:49:20;2.80;99.90
36548;DHT22;22551;52.206;4.856;2024-03-25T04:54:21;2.80;99.90
36548;DHT22;22551;52.206;4.856;2024-03-25T04:59:22;2.80;99.90
36548;DHT22;22551;52.206;4.856;2024-03-25T05:04:25;2.70;99.90
36548;DHT22;22551;52.206;4.856;2024-03-25T05:09:27;2.60;99.90
36548;DHT22;22551;52.206;4.856;2024-03-25T05:14:28;2.60;99.90
36548;DHT22;22551;52.206;4.856;2024-03-25T05:19:30;2.50;99.90
36548;DHT22;22551;52.206;4.856;2024-03-25T05:24:31;2.50;99.90
36548;DHT22;22551;52.206;4.856;2024-03-25T05:29:33;2.40;99.90
36548;DHT22;22551;52.206;4.856;2024-03-25T05:34:35;2.40;99.90
36548;DHT22;22551;52.206;4.856;2024-03-25T05:39:36;2.40;99.90
36548;DHT22;22551;52.206;4.856;2024-03-25T05:44:38;2.40;99.90
36548;DHT22;22551;52.206;4.856;2024-03-25T05:50:02;2.40;99.90
36548;DHT22;22551;52.206;4.856;2024-03-25T05:55:04;2.50;99.90
36548;DHT22;22551;52.206;4.856;2024-03-25T06:00:06;2.50;99.90
36548;DHT22;22551;52.206;4.856;2024-03-25T06:05:10;2.60;99.90
36548;DHT22;22551;52.206;4.856;2024-03-25T06:10:11;2.70;99.90
36548;DHT22;22551;52.206;4.856;2024-03-25T06:15:13;2.80;99.90
36548;DHT22;22551;52.206;4.856;2024-03-25T06:20:15;2.90;99.90
36548;DHT22;22551;52.206;4.856;2024-03-25T06:25:17;2.90;99.90
36548;DHT22;22551;52.206;4.856;2024-03-25T06:30:18;2.90;99.90
36548;DHT22;22551;52.206;4.856;2024-03-25T06:35:39;3.20;99.90
36548;DHT22;22551;52.206;4.856;2024-03-25T06:40:40;3.40;99.90
36548;DHT22;22551;52.206;4.856;2024-03-25T06:45:41;3.50;99.90
36548;DHT22;22551;52.206;4.856;2024-03-25T06:50:52;3.70;99.90
36548;DHT22;22551;52.206;4.856;2024-03-25T06:55:54;3.70;99.90
36548;DHT22;22551;52.206;4.856;2024-03-25T07:01:03;3.80;99.90
36548;DHT22;22551;52.206;4.856;2024-03-25T07:06:07;3.90;99.90
36548;DHT22;22551;52.206;4.856;2024-03-25T07:11:08;4.00;99.90
36548;DHT22;22551;52.206;4.856;2024-03-25T07:16:09;4.10;99.90
36548;DHT22;22551;52.206;4.856;2024-03-25T07:21:12;4.20;99.90
36548;DHT22;22551;52.206;4.856;2024-03-25T07:26:13;4.40;99.90
36548;DHT22;22551;52.206;4.856;2024-03-25T07:31:14;4.50;99.90
36548;DHT22;22551;52.206;4.856;2024-03-25T07:36:17;4.70;99.90
36548;DHT22;22551;52.206;4.856;2024-03-25T07:56:50;6.00;99.90
36548;DHT22;22551;52.206;4.856;2024-03-25T08:01:51;6.10;99.90
36548;DHT22;22551;52.206;4.856;2024-03-25T08:06:52;6.20;99.90
36548;DHT22;22551;52.206;4.856;2024-03-25T08:11:55;6.30;99.90
36548;DHT22;22551;52.206;4.856;2024-03-25T08:16:56;6.40;99.90
36548;DHT22;22551;52.206;4.856;2024-03-25T08:21:58;6.40;99.90
36548;DHT22;22551;52.206;4.856;2024-03-25T08:27:00;6.60;99.90
36548;DHT22;22551;52.206;4.856;2024-03-25T08:32:01;6.70;99.90
36548;DHT22;22551;52.206;4.856;2024-03-25T08:37:03;6.80;99.90
36548;DHT22;22551;52.206;4.856;2024-03-25T08:42:06;6.90;99.90
36548;DHT22;22551;52.206;4.856;2024-03-25T08:47:07;7.00;99.90
36548;DHT22;22551;52.206;4.856;2024-03-25T08:52:08;7.30;99.90
36548;DHT22;22551;52.206;4.856;2024-03-25T08:57:11;7.40;99.90
36548;DHT22;22551;52.206;4.856;2024-03-25T09:02:12;7.50;99.90
36548;DHT22;22551;52.206;4.856;2024-03-25T09:07:14;7.70;99.90
36548;DHT22;22551;52.206;4.856;2024-03-25T09:12:17;8.10;99.90
36548;DHT22;22551;52.206;4.856;2024-03-25T09:17:18;8.30;99.90
36548;DHT22;22551;52.206;4.856;2024-03-25T09:22:20;8.70;99.90
36548;DHT22;22551;52.206;4.856;2024-03-25T09:27:22;9.20;99.90
36548;DHT22;22551;52.206;4.856;2024-03-25T09:32:24;9.80;99.90
36548;DHT22;22551;52.206;4.856;2024-03-25T09:37:25;9.90;99.90
36548;DHT22;22551;52.206;4.856;2024-03-25T09:42:31;10.30;99.90
36548;DHT22;22551;52.206;4.856;2024-03-25T09:47:35;10.60;99.90
36548;DHT22;22551;52.206;4.856;2024-03-25T09:52:36;10.90;99.90
36548;DHT22;22551;52.206;4.856;2024-03-25T09:57:39;11.10;99.90
36548;DHT22;22551;52.206;4.856;2024-03-25T10:02:41;11.20;99.90
36548;DHT22;22551;52.206;4.856;2024-03-25T10:07:42;11.20;99.90
36548;DHT22;22551;52.206;4.856;2024-03-25T10:12:47;11.40;99.90
36548;DHT22;22551;52.206;4.856;2024-03-25T10:17:49;11.40;99.90
36548;DHT22;22551;52.206;4.856;2024-03-25T10:22:51;11.70;99.90
36548;DHT22;22551;52.206;4.856;2024-03-25T10:27:57;11.60;99.90
36548;DHT22;22551;52.206;4.856;2024-03-25T10:32:59;11.80;99.90
36548;DHT22;22551;52.206;4.856;2024-03-25T10:38:02;12.20;99.90
36548;DHT22;22551;52.206;4.856;2024-03-25T10:43:07;12.30;99.90
36548;DHT22;22551;52.206;4.856;2024-03-25T10:48:17;12.20;99.90
36548;DHT22;22551;52.206;4.856;2024-03-25T10:53:20;12.30;99.90
36548;DHT22;22551;52.206;4.856;2024-03-25T10:58:24;12.60;99.90
36548;DHT22;22551;52.206;4.856;2024-03-25T11:03:25;13.40;99.90
36548;DHT22;22551;52.206;4.856;2024-03-25T11:08:31;13.50;99.90
36548;DHT22;22551;52.206;4.856;2024-03-25T11:13:34;13.60;99.90
36548;DHT22;22551;52.206;4.856;2024-03-25T11:18:35;13.70;99.90
36548;DHT22;22551;52.206;4.856;2024-03-25T11:23:40;14.20;99.90
36548;DHT22;22551;52.206;4.856;2024-03-25T11:28:43;14.20;99.90
36548;DHT22;22551;52.206;4.856;2024-03-25T11:33:44;14.50;99.90
36548;DHT22;22551;52.206;4.856;2024-03-25T11:38:46;14.60;99.90
36548;DHT22;22551;52.206;4.856;2024-03-25T11:43:48;14.60;99.90
36548;DHT22;22551;52.206;4.856;2024-03-25T11:48:50;14.90;99.90
36548;DHT22;22551;52.206;4.856;2024-03-25T11:53:51;14.60;99.90
36548;DHT22;22551;52.206;4.856;2024-03-25T11:58:54;14.90;99.90
36548;DHT22;22551;52.206;4.856;2024-03-25T12:03:55;14.60;99.90
36548;DHT22;22551;52.206;4.856;2024-03-25T12:08:56;14.90;99.90
36548;DHT22;22551;52.206;4.856;2024-03-25T12:14:18;15.00;99.90
36548;DHT22;22551;52.206;4.856;2024-03-25T12:19:19;15.40;99.90
36548;DHT22;22551;52.206;4.856;2024-03-25T12:24:23;15.30;99.90
36548;DHT22;22551;52.206;4.856;2024-03-25T12:29:26;15.60;99.90
36548;DHT22;22551;52.206;4.856;2024-03-25T12:34:27;15.20;99.90
36548;DHT22;22551;52.206;4.856;2024-03-25T12:39:28;14.90;99.90
36548;DHT22;22551;52.206;4.856;2024-03-25T12:44:32;15.40;99.90
36548;DHT22;22551;52.206;4.856;2024-03-25T12:49:33;15.30;99.90
36548;DHT22;22551;52.206;4.856;2024-03-25T12:54:34;15.20;99.90
36548;DHT22;22551;52.206;4.856;2024-03-25T12:59:37;15.00;99.90
36548;DHT22;22551;52.206;4.856;2024-03-25T13:04:39;15.00;99.90
36548;DHT22;22551;52.206;4.856;2024-03-25T13:09:40;14.30;99.90
36548;DHT22;22551;52.206;4.856;2024-03-25T13:14:43;14.10;99.90
36548;DHT22;22551;52.206;4.856;2024-03-25T13:19:44;14.70;99.90
36548;DHT22;22551;52.206;4.856;2024-03-25T13:24:45;14.50;99.90
36548;DHT22;22551;52.206;4.856;2024-03-25T13:29:47;14.30;99.90
36548;DHT22;22551;52.206;4.856;2024-03-25T13:34:48;14.00;99.90
36548;DHT22;22551;52.206;4.856;2024-03-25T13:39:50;14.00;99.90
36548;DHT22;22551;52.206;4.856;2024-03-25T13:44:52;14.60;99.90
36548;DHT22;22551;52.206;4.856;2024-03-25T13:50:01;14.70;99.90
36548;DHT22;22551;52.206;4.856;2024-03-25T13:55:02;14.30;99.90
36548;DHT22;22551;52.206;4.856;2024-03-25T14:00:07;14.50;99.90
36548;DHT22;22551;52.206;4.856;2024-03-25T14:05:09;14.30;99.90
36548;DHT22;22551;52.206;4.856;2024-03-25T14:10:10;14.00;99.90
36548;DHT22;22551;52.206;4.856;2024-03-25T14:15:14;13.60;99.90
36548;DHT22;22551;52.206;4.856;2024-03-25T14:20:16;13.30;99.90
36548;DHT22;22551;52.206;4.856;2024-03-25T14:25:17;13.10;99.90
36548;DHT22;22551;52.206;4.856;2024-03-25T14:30:19;13.10;99.90
36548;DHT22;22551;52.206;4.856;2024-03-25T14:35:20;13.60;99.90
36548;DHT22;22551;52.206;4.856;2024-03-25T14:40:22;14.10;99.90
36548;DHT22;22551;52.206;4.856;2024-03-25T14:45:31;14.30;99.90
36548;DHT22;22551;52.206;4.856;2024-03-25T14:50:37;14.60;99.90
36548;DHT22;22551;52.206;4.856;2024-03-25T14:55:38;14.40;99.90
36548;DHT22;22551;52.206;4.856;2024-03-25T15:00:41;14.20;99.90
36548;DHT22;22551;52.206;4.856;2024-03-25T15:05:42;14.30;99.90
36548;DHT22;22551;52.206;4.856;2024-03-25T15:10:46;14.30;99.90
36548;DHT22;22551;52.206;4.856;2024-03-25T15:15:48;14.30;99.90
36548;DHT22;22551;52.206;4.856;2024-03-25T15:20:59;14.40;99.90
36548;DHT22;22551;52.206;4.856;2024-03-25T15:26:01;14.40;99.90
36548;DHT22;22551;52.206;4.856;2024-03-25T15:31:04;14.70;99.90
36548;DHT22;22551;52.206;4.856;2024-03-25T15:36:05;15.00;99.90
36548;DHT22;22551;52.206;4.856;2024-03-25T15:41:07;14.50;99.90
36548;DHT22;22551;52.206;4.856;2024-03-25T15:46:10;14.60;99.90
36548;DHT22;22551;52.206;4.856;2024-03-25T15:51:11;14.20;99.90
36548;DHT22;22551;52.206;4.856;2024-03-25T15:56:12;13.90;99.90
36548;DHT22;22551;52.206;4.856;2024-03-25T16:01:15;13.70;99.90
36548;DHT22;22551;52.206;4.856;2024-03-25T16:06:16;13.70;99.90
36548;DHT22;22551;52.206;4.856;2024-03-25T16:11:18;13.40;99.90
36548;DHT22;22551;52.206;4.856;2024-03-25T16:16:21;13.30;99.90
36548;DHT22;22551;52.206;4.856;2024-03-25T16:21:22;13.10;99.90
36548;DHT22;22551;52.206;4.856;2024-03-25T16:26:24;13.10;99.90
36548;DHT22;22551;52.206;4.856;2024-03-25T16:31:28;13.00;99.90
36548;DHT22;22551;52.206;4.856;2024-03-25T16:36:29;12.70;99.90
36548;DHT22;22551;52.206;4.856;2024-03-25T16:41:30;12.50;99.90
36548;DHT22;22551;52.206;4.856;2024-03-25T16:46:33;12.40;99.90
36548;DHT22;22551;52.206;4.856;2024-03-25T16:51:34;12.20;99.90
36548;DHT22;22551;52.206;4.856;2024-03-25T16:56:35;12.00;99.90
36548;DHT22;22551;52.206;4.856;2024-03-25T17:01:38;11.80;99.90
36548;DHT22;22551;52.206;4.856;2024-03-25T17:06:39;11.60;99.90
36548;DHT22;22551;52.206;4.856;2024-03-25T17:11:40;11.40;99.90
36548;DHT22;22551;52.206;4.856;2024-03-25T17:16:43;11.40;99.90
36548;DHT22;22551;52.206;4.856;2024-03-25T17:21:44;11.10;99.90
36548;DHT22;22551;52.206;4.856;2024-03-25T17:26:45;11.00;99.90
36548;DHT22;22551;52.206;4.856;2024-03-25T17:31:49;10.80;99.90
36548;DHT22;22551;52.206;4.856;2024-03-25T17:43:07;10.50;99.90
36548;DHT22;22551;52.206;4.856;2024-03-25T17:48:09;10.30;99.90
36548;DHT22;22551;52.206;4.856;2024-03-25T17:53:11;10.20;99.90
36548;DHT22;22551;52.206;4.856;2024-03-25T17:58:12;10.10;99.90
36548;DHT22;22551;52.206;4.856;2024-03-25T18:03:17;10.00;99.90
36548;DHT22;22551;52.206;4.856;2024-03-25T18:08:19;9.80;99.90
36548;DHT22;22551;52.206;4.856;2024-03-25T18:13:20;9.70;99.90
36548;DHT22;22551;52.206;4.856;2024-03-25T18:18:22;9.60;99.90
36548;DHT22;22551;52.206;4.856;2024-03-25T18:23:24;9.40;99.90
36548;DHT22;22551;52.206;4.856;2024-03-25T18:28:25;9.30;99.90
36548;DHT22;22551;52.206;4.856;2024-03-25T18:33:28;9.30;99.90
36548;DHT22;22551;52.206;4.856;2024-03-25T18:38:29;9.20;99.90
36548;DHT22;22551;52.206;4.856;2024-03-25T18:43:30;9.10;99.90
36548;DHT22;22551;52.206;4.856;2024-03-25T18:48:32;9.10;99.90
36548;DHT22;22551;52.206;4.856;2024-03-25T18:53:36;9.00;99.90
36548;DHT22;22551;52.206;4.856;2024-03-25T18:58:37;8.90;99.90
36548;DHT22;22551;52.206;4.856;2024-03-25T19:03:41;8.90;99.90
36548;DHT22;22551;52.206;4.856;2024-03-25T19:08:42;8.80;99.90
36548;DHT22;22551;52.206;4.856;2024-03-25T19:13:43;8.70;99.90
36548;DHT22;22551;52.206;4.856;2024-03-25T19:18:46;8.60;99.90
36548;DHT22;22551;52.206;4.856;2024-03-25T19:23:47;8.60;99.90
36548;DHT22;22551;52.206;4.856;2024-03-25T19:28:48;8.60;99.90
36548;DHT22;22551;52.206;4.856;2024-03-25T19:33:51;8.50;99.90
36548;DHT22;22551;52.206;4.856;2024-03-25T19:38:52;8.30;99.90
36548;DHT22;22551;52.206;4.856;2024-03-25T19:43:54;8.30;99.90
36548;DHT22;22551;52.206;4.856;2024-03-25T19:48:56;8.30;99.90
36548;DHT22;22551;52.206;4.856;2024-03-25T19:53:58;8.20;99.90
36548;DHT22;22551;52.206;4.856;2024-03-25T19:58:59;8.20;99.90
36548;DHT22;22551;52.206;4.856;2024-03-25T20:04:01;8.10;99.90
36548;DHT22;22551;52.206;4.856;2024-03-25T20:09:03;8.00;99.90
36548;DHT22;22551;52.206;4.856;2024-03-25T20:14:04;8.00;99.90
36548;DHT22;22551;52.206;4.856;2024-03-25T20:19:06;7.90;99.90
36548;DHT22;22551;52.206;4.856;2024-03-25T20:24:08;7.80;99.90
36548;DHT22;22551;52.206;4.856;2024-03-25T20:29:09;7.80;99.90
36548;DHT22;22551;52.206;4.856;2024-03-25T20:34:12;7.80;99.90
36548;DHT22;22551;52.206;4.856;2024-03-25T20:39:13;7.80;99.90
36548;DHT22;22551;52.206;4.856;2024-03-25T20:44:14;7.80;99.90
36548;DHT22;22551;52.206;4.856;2024-03-25T20:49:17;7.70;99.90
36548;DHT22;22551;52.206;4.856;2024-03-25T20:54:18;7.80;99.90
36548;DHT22;22551;52.206;4.856;2024-03-25T20:59:19;7.80;99.90
36548;DHT22;22551;52.206;4.856;2024-03-25T21:04:22;7.70;99.90
36548;DHT22;22551;52.206;4.856;2024-03-25T21:09:24;7.70;99.90
36548;DHT22;22551;52.206;4.856;2024-03-25T21:14:26;7.70;99.90
36548;DHT22;22551;52.206;4.856;2024-03-25T21:19:29;7.60;99.90
36548;DHT22;22551;52.206;4.856;2024-03-25T21:24:31;7.60;99.90
36548;DHT22;22551;52.206;4.856;2024-03-25T21:29:32;7.70;99.90
36548;DHT22;22551;52.206;4.856;2024-03-25T21:34:38;7.70;99.90
36548;DHT22;22551;52.206;4.856;2024-03-25T21:39:39;7.70;99.90
36548;DHT22;22551;52.206;4.856;2024-03-25T21:44:40;7.70;99.90
36548;DHT22;22551;52.206;4.856;2024-03-25T21:49:42;7.60;99.90
36548;DHT22;22551;52.206;4.856;2024-03-25T21:54:44;7.60;99.90
36548;DHT22;22551;52.206;4.856;2024-03-25T21:59:45;7.50;99.90
36548;DHT22;22551;52.206;4.856;2024-03-25T22:04:48;7.50;99.90
36548;DHT22;22551;52.206;4.856;2024-03-25T22:09:49;7.50;99.90
36548;DHT22;22551;52.206;4.856;2024-03-25T22:14:50;7.40;99.90
36548;DHT22;22551;52.206;4.856;2024-03-25T22:19:53;7.30;99.90
36548;DHT22;22551;52.206;4.856;2024-03-25T22:24:54;7.30;99.90
36548;DHT22;22551;52.206;4.856;2024-03-25T22:29:56;7.20;99.90
36548;DHT22;22551;52.206;4.856;2024-03-25T22:34:58;7.30;99.90
36548;DHT22;22551;52.206;4.856;2024-03-25T22:40:00;7.20;99.90
36548;DHT22;22551;52.206;4.856;2024-03-25T22:45:01;7.30;99.90
36548;DHT22;22551;52.206;4.856;2024-03-25T22:50:04;7.20;99.90
36548;DHT22;22551;52.206;4.856;2024-03-25T22:55:07;7.20;99.90
36548;DHT22;22551;52.206;4.856;2024-03-25T23:00:10;7.10;99.90
36548;DHT22;22551;52.206;4.856;2024-03-25T23:05:14;7.10;99.90
36548;DHT22;22551;52.206;4.856;2024-03-25T23:10:16;7.10;99.90
36548;DHT22;22551;52.206;4.856;2024-03-25T23:15:17;7.10;99.90
36548;DHT22;22551;52.206;4.856;2024-03-25T23:20:20;7.00;99.90
36548;DHT22;22551;52.206;4.856;2024-03-25T23:25:21;7.00;99.90
36548;DHT22;22551;52.206;4.856;2024-03-25T23:30:22;6.90;99.90
36548;DHT22;22551;52.206;4.856;2024-03-25T23:35:25;6.90;99.90
36548;DHT22;22551;52.206;4.856;2024-03-25T23:40:26;6.90;99.90
36548;DHT22;22551;52.206;4.856;2024-03-25T23:45:27;6.80;99.90
36548;DHT22;22551;52.206;4.856;2024-03-25T23:50:29;6.80;99.90
36548;DHT22;22551;52.206;4.856;2024-03-25T23:55:31;6.80;99.90
